sensor_id;sensor_type;location;lat;lon;timestamp;temperature;humidity
3778;DHT22;1904;50.076;8.660;2022-08-19T00:00:44;22.10;1.00
3778;DHT22;1904;50.076;8.660;2022-08-19T00:03:14;22.20;1.00
3778;DHT22;1904;50.076;8.660;2022-08-19T00:05:56;22.20;1.00
3778;DHT22;1904;50.076;8.660;2022-08-19T00:08:22;22.20;1.00
3778;DHT22;1904;50.076;8.660;2022-08-19T00:11:03;22.20;1.00
3778;DHT22;1904;50.076;8.660;2022-08-19T00:13:44;22.20;1.00
3778;DHT22;1904;50.076;8.660;2022-08-19T00:16:15;22.30;1.00
3778;DHT22;1904;50.076;8.660;2022-08-19T00:18:45;22.30;1.00
3778;DHT22;1904;50.076;8.660;2022-08-19T00:21:14;22.30;1.00
3778;DHT22;1904;50.076;8.660;2022-08-19T00:23:44;22.30;1.00
3778;DHT22;1904;50.076;8.660;2022-08-19T00:26:44;22.20;1.00
3778;DHT22;1904;50.076;8.660;2022-08-19T00:29:12;22.20;1.00
3778;DHT22;1904;50.076;8.660;2022-08-19T00:31:38;22.30;1.00
3778;DHT22;1904;50.076;8.660;2022-08-19T00:34:15;22.30;1.00
3778;DHT22;1904;50.076;8.660;2022-08-19T00:36:46;22.30;1.00
3778;DHT22;1904;50.076;8.660;2022-08-19T00:39:14;22.30;1.00
3778;DHT22;1904;50.076;8.660;2022-08-19T00:41:40;22.30;1.00
3778;DHT22;1904;50.076;8.660;2022-08-19T00:46:47;22.30;1.00
3778;DHT22;1904;50.076;8.660;2022-08-19T00:49:25;22.30;1.00
3778;DHT22;1904;50.076;8.660;2022-08-19T00:51:59;22.30;1.00
3778;DHT22;1904;50.076;8.660;2022-08-19T00:54:27;22.30;1.00
3778;DHT22;1904;50.076;8.660;2022-08-19T00:57:12;22.30;1.00
3778;DHT22;1904;50.076;8.660;2022-08-19T00:59:47;22.30;1.00
3778;DHT22;1904;50.076;8.660;2022-08-19T01:02:27;22.30;1.00
3778;DHT22;1904;50.076;8.660;2022-08-19T01:05:16;22.30;1.00
3778;DHT22;1904;50.076;8.660;2022-08-19T01:07:45;22.30;1.00
3778;DHT22;1904;50.076;8.660;2022-08-19T01:10:18;22.30;1.00
3778;DHT22;1904;50.076;8.660;2022-08-19T01:12:58;22.30;1.00
3778;DHT22;1904;50.076;8.660;2022-08-19T01:15:45;22.40;1.00
3778;DHT22;1904;50.076;8.660;2022-08-19T01:18:16;22.40;1.00
3778;DHT22;1904;50.076;8.660;2022-08-19T01:20:45;22.40;1.00
3778;DHT22;1904;50.076;8.660;2022-08-19T01:23:44;22.40;1.00
3778;DHT22;1904;50.076;8.660;2022-08-19T01:26:18;22.40;1.00
3778;DHT22;1904;50.076;8.660;2022-08-19T01:28:55;22.40;1.00
3778;DHT22;1904;50.076;8.660;2022-08-19T01:31:23;22.40;1.00
3778;DHT22;1904;50.076;8.660;2022-08-19T01:33:50;22.40;1.00
3778;DHT22;1904;50.076;8.660;2022-08-19T01:36:45;22.40;1.00
3778;DHT22;1904;50.076;8.660;2022-08-19T01:39:21;22.40;1.00
3778;DHT22;1904;50.076;8.660;2022-08-19T01:41:48;22.50;1.00
3778;DHT22;1904;50.076;8.660;2022-08-19T01:44:16;22.40;1.00
3778;DHT22;1904;50.076;8.660;2022-08-19T01:46:46;22.40;1.00
3778;DHT22;1904;50.076;8.660;2022-08-19T01:49:16;22.40;1.00
3778;DHT22;1904;50.076;8.660;2022-08-19T01:51:45;22.40;1.00
3778;DHT22;1904;50.076;8.660;2022-08-19T01:54:16;22.40;1.00
3778;DHT22;1904;50.076;8.660;2022-08-19T01:56:44;22.40;1.00
3778;DHT22;1904;50.076;8.660;2022-08-19T01:59:19;22.40;1.00
3778;DHT22;1904;50.076;8.660;2022-08-19T02:01:50;22.40;1.00
3778;DHT22;1904;50.076;8.660;2022-08-19T02:04:21;22.30;1.00
3778;DHT22;1904;50.076;8.660;2022-08-19T02:06:51;22.40;1.00
3778;DHT22;1904;50.076;8.660;2022-08-19T02:09:16;22.30;1.00
3778;DHT22;1904;50.076;8.660;2022-08-19T02:11:57;22.30;1.00
3778;DHT22;1904;50.076;8.660;2022-08-19T02:14:27;22.30;1.00
3778;DHT22;1904;50.076;8.660;2022-08-19T02:16:57;22.30;1.00
3778;DHT22;1904;50.076;8.660;2022-08-19T02:19:33;22.30;1.00
3778;DHT22;1904;50.076;8.660;2022-08-19T02:22:08;22.20;1.00
3778;DHT22;1904;50.076;8.660;2022-08-19T02:24:39;22.30;1.00
3778;DHT22;1904;50.076;8.660;2022-08-19T02:27:04;22.30;1.00
3778;DHT22;1904;50.076;8.660;2022-08-19T02:29:31;22.30;1.00
3778;DHT22;1904;50.076;8.660;2022-08-19T02:31:57;22.30;1.00
3778;DHT22;1904;50.076;8.660;2022-08-19T02:34:23;22.30;1.00
3778;DHT22;1904;50.076;8.660;2022-08-19T02:36:50;22.30;1.00
3778;DHT22;1904;50.076;8.660;2022-08-19T02:42:50;22.30;1.00
3778;DHT22;1904;50.076;8.660;2022-08-19T02:45:34;22.40;1.00
3778;DHT22;1904;50.076;8.660;2022-08-19T02:48:00;22.30;1.00
3778;DHT22;1904;50.076;8.660;2022-08-19T02:50:26;22.30;1.00
3778;DHT22;1904;50.076;8.660;2022-08-19T02:53:09;22.30;1.00
3778;DHT22;1904;50.076;8.660;2022-08-19T02:55:56;22.30;1.00
3778;DHT22;1904;50.076;8.660;2022-08-19T02:58:33;22.30;1.00
3778;DHT22;1904;50.076;8.660;2022-08-19T03:01:03;22.30;1.00
3778;DHT22;1904;50.076;8.660;2022-08-19T03:03:33;22.20;1.00
3778;DHT22;1904;50.076;8.660;2022-08-19T03:06:15;22.20;1.00
3778;DHT22;1904;50.076;8.660;2022-08-19T03:08:46;22.20;1.00
3778;DHT22;1904;50.076;8.660;2022-08-19T03:11:44;22.10;1.00
3778;DHT22;1904;50.076;8.660;2022-08-19T03:14:15;22.10;1.00
3778;DHT22;1904;50.076;8.660;2022-08-19T03:16:51;22.00;1.00
3778;DHT22;1904;50.076;8.660;2022-08-19T03:19:33;21.90;1.00
3778;DHT22;1904;50.076;8.660;2022-08-19T03:22:14;21.90;1.00
3778;DHT22;1904;50.076;8.660;2022-08-19T03:24:40;21.90;1.00
3778;DHT22;1904;50.076;8.660;2022-08-19T03:27:06;21.80;1.00
3778;DHT22;1904;50.076;8.660;2022-08-19T03:29:32;21.80;1.00
3778;DHT22;1904;50.076;8.660;2022-08-19T03:32:00;21.70;1.00
3778;DHT22;1904;50.076;8.660;2022-08-19T03:34:30;21.70;1.00
3778;DHT22;1904;50.076;8.660;2022-08-19T03:36:58;21.70;1.00
3778;DHT22;1904;50.076;8.660;2022-08-19T03:39:44;21.70;1.00
3778;DHT22;1904;50.076;8.660;2022-08-19T03:45:31;21.80;1.00
3778;DHT22;1904;50.076;8.660;2022-08-19T03:48:09;21.80;1.00
3778;DHT22;1904;50.076;8.660;2022-08-19T03:53:40;21.70;1.00
3778;DHT22;1904;50.076;8.660;2022-08-19T03:56:15;21.70;1.00
3778;DHT22;1904;50.076;8.660;2022-08-19T03:59:16;21.70;1.00
3778;DHT22;1904;50.076;8.660;2022-08-19T04:01:53;21.70;1.00
3778;DHT22;1904;50.076;8.660;2022-08-19T04:04:27;21.60;1.00
3778;DHT22;1904;50.076;8.660;2022-08-19T04:06:57;21.60;1.00
3778;DHT22;1904;50.076;8.660;2022-08-19T04:09:22;21.60;1.00
3778;DHT22;1904;50.076;8.660;2022-08-19T04:11:54;21.60;1.00
3778;DHT22;1904;50.076;8.660;2022-08-19T04:14:23;21.60;1.00
3778;DHT22;1904;50.076;8.660;2022-08-19T04:16:52;21.60;1.00
3778;DHT22;1904;50.076;8.660;2022-08-19T04:19:18;21.60;1.00
3778;DHT22;1904;50.076;8.660;2022-08-19T04:21:46;21.50;1.00
3778;DHT22;1904;50.076;8.660;2022-08-19T04:24:12;21.50;1.00
3778;DHT22;1904;50.076;8.660;2022-08-19T04:26:38;21.50;1.00
3778;DHT22;1904;50.076;8.660;2022-08-19T04:29:08;21.40;1.00
3778;DHT22;1904;50.076;8.660;2022-08-19T04:31:41;21.50;1.00
3778;DHT22;1904;50.076;8.660;2022-08-19T04:34:10;21.40;1.00
3778;DHT22;1904;50.076;8.660;2022-08-19T04:36:38;21.40;1.00
3778;DHT22;1904;50.076;8.660;2022-08-19T04:39:12;21.30;1.00
3778;DHT22;1904;50.076;8.660;2022-08-19T04:41:38;21.30;1.00
3778;DHT22;1904;50.076;8.660;2022-08-19T04:44:22;21.30;1.00
3778;DHT22;1904;50.076;8.660;2022-08-19T04:46:51;21.20;1.00
3778;DHT22;1904;50.076;8.660;2022-08-19T04:49:19;21.20;1.00
3778;DHT22;1904;50.076;8.660;2022-08-19T04:51:47;21.20;1.00
3778;DHT22;1904;50.076;8.660;2022-08-19T04:54:16;21.20;1.00
3778;DHT22;1904;50.076;8.660;2022-08-19T04:56:42;21.30;1.00
3778;DHT22;1904;50.076;8.660;2022-08-19T04:59:07;21.30;1.00
3778;DHT22;1904;50.076;8.660;2022-08-19T05:01:45;21.40;1.00
3778;DHT22;1904;50.076;8.660;2022-08-19T05:04:17;21.50;1.00
3778;DHT22;1904;50.076;8.660;2022-08-19T05:06:47;21.50;1.00
3778;DHT22;1904;50.076;8.660;2022-08-19T05:09:15;21.50;1.00
3778;DHT22;1904;50.076;8.660;2022-08-19T05:15:05;21.60;1.00
3778;DHT22;1904;50.076;8.660;2022-08-19T05:17:39;21.70;1.00
3778;DHT22;1904;50.076;8.660;2022-08-19T05:23:46;21.90;1.00
3778;DHT22;1904;50.076;8.660;2022-08-19T05:26:21;22.00;1.00
3778;DHT22;1904;50.076;8.660;2022-08-19T05:28:54;22.10;1.00
3778;DHT22;1904;50.076;8.660;2022-08-19T05:31:39;22.10;1.00
3778;DHT22;1904;50.076;8.660;2022-08-19T05:34:10;22.30;1.00
3778;DHT22;1904;50.076;8.660;2022-08-19T05:36:41;22.40;1.00
3778;DHT22;1904;50.076;8.660;2022-08-19T05:39:38;22.50;1.00
3778;DHT22;1904;50.076;8.660;2022-08-19T05:42:11;22.60;1.00
3778;DHT22;1904;50.076;8.660;2022-08-19T05:44:41;22.80;1.00
3778;DHT22;1904;50.076;8.660;2022-08-19T05:47:16;22.90;1.00
3778;DHT22;1904;50.076;8.660;2022-08-19T05:49:42;23.00;1.00
3778;DHT22;1904;50.076;8.660;2022-08-19T05:52:11;23.20;1.00
3778;DHT22;1904;50.076;8.660;2022-08-19T05:54:39;23.30;1.00
3778;DHT22;1904;50.076;8.660;2022-08-19T06:00:22;23.50;1.00
3778;DHT22;1904;50.076;8.660;2022-08-19T06:02:48;23.50;1.00
3778;DHT22;1904;50.076;8.660;2022-08-19T06:05:14;23.50;1.00
3778;DHT22;1904;50.076;8.660;2022-08-19T06:07:40;23.60;1.00
3778;DHT22;1904;50.076;8.660;2022-08-19T06:10:10;23.60;1.00
3778;DHT22;1904;50.076;8.660;2022-08-19T06:12:36;23.60;1.00
3778;DHT22;1904;50.076;8.660;2022-08-19T06:15:06;23.60;1.00
3778;DHT22;1904;50.076;8.660;2022-08-19T06:17:33;23.60;1.00
3778;DHT22;1904;50.076;8.660;2022-08-19T06:20:02;23.60;1.00
3778;DHT22;1904;50.076;8.660;2022-08-19T06:22:38;23.70;1.00
3778;DHT22;1904;50.076;8.660;2022-08-19T06:25:04;23.70;1.00
3778;DHT22;1904;50.076;8.660;2022-08-19T06:27:30;23.70;1.00
3778;DHT22;1904;50.076;8.660;2022-08-19T06:29:57;23.70;1.00
3778;DHT22;1904;50.076;8.660;2022-08-19T06:32:22;23.70;1.00
3778;DHT22;1904;50.076;8.660;2022-08-19T06:34:48;23.80;1.00
3778;DHT22;1904;50.076;8.660;2022-08-19T06:37:14;23.80;1.00
3778;DHT22;1904;50.076;8.660;2022-08-19T06:39:42;23.90;1.00
3778;DHT22;1904;50.076;8.660;2022-08-19T06:42:09;23.80;1.00
3778;DHT22;1904;50.076;8.660;2022-08-19T06:48:14;24.00;1.00
3778;DHT22;1904;50.076;8.660;2022-08-19T06:54:02;24.20;1.00
3778;DHT22;1904;50.076;8.660;2022-08-19T06:56:30;24.30;1.00
3778;DHT22;1904;50.076;8.660;2022-08-19T06:59:15;24.40;1.00
3778;DHT22;1904;50.076;8.660;2022-08-19T07:01:53;24.30;1.00
3778;DHT22;1904;50.076;8.660;2022-08-19T07:04:29;24.40;1.00
3778;DHT22;1904;50.076;8.660;2022-08-19T07:07:11;24.50;1.00
3778;DHT22;1904;50.076;8.660;2022-08-19T07:09:45;24.60;1.00
3778;DHT22;1904;50.076;8.660;2022-08-19T07:12:15;24.60;1.00
3778;DHT22;1904;50.076;8.660;2022-08-19T07:17:52;24.70;1.00
3778;DHT22;1904;50.076;8.660;2022-08-19T07:20:18;24.80;1.00
3778;DHT22;1904;50.076;8.660;2022-08-19T07:22:43;24.80;1.00
3778;DHT22;1904;50.076;8.660;2022-08-19T07:25:10;24.90;1.00
3778;DHT22;1904;50.076;8.660;2022-08-19T07:27:38;24.90;1.00
3778;DHT22;1904;50.076;8.660;2022-08-19T07:30:04;25.00;1.00
3778;DHT22;1904;50.076;8.660;2022-08-19T07:32:30;25.00;1.00
3778;DHT22;1904;50.076;8.660;2022-08-19T07:34:56;25.10;1.00
3778;DHT22;1904;50.076;8.660;2022-08-19T07:37:22;25.20;1.00
3778;DHT22;1904;50.076;8.660;2022-08-19T07:39:47;25.30;1.00
3778;DHT22;1904;50.076;8.660;2022-08-19T07:42:13;25.40;1.00
3778;DHT22;1904;50.076;8.660;2022-08-19T07:44:40;25.50;1.00
3778;DHT22;1904;50.076;8.660;2022-08-19T07:47:06;25.60;1.00
3778;DHT22;1904;50.076;8.660;2022-08-19T07:49:32;25.70;1.00
3778;DHT22;1904;50.076;8.660;2022-08-19T07:52:06;25.80;1.00
3778;DHT22;1904;50.076;8.660;2022-08-19T07:54:34;25.90;1.00
3778;DHT22;1904;50.076;8.660;2022-08-19T07:57:02;26.10;1.00
3778;DHT22;1904;50.076;8.660;2022-08-19T07:59:28;26.20;1.00
3778;DHT22;1904;50.076;8.660;2022-08-19T08:01:55;26.20;1.00
3778;DHT22;1904;50.076;8.660;2022-08-19T08:04:20;26.30;1.00
3778;DHT22;1904;50.076;8.660;2022-08-19T08:07:06;26.50;1.00
3778;DHT22;1904;50.076;8.660;2022-08-19T08:09:51;26.60;1.00
3778;DHT22;1904;50.076;8.660;2022-08-19T08:12:33;26.70;1.00
3778;DHT22;1904;50.076;8.660;2022-08-19T08:15:02;26.80;1.00
3778;DHT22;1904;50.076;8.660;2022-08-19T08:17:30;26.90;1.00
3778;DHT22;1904;50.076;8.660;2022-08-19T08:19:57;26.90;1.00
3778;DHT22;1904;50.076;8.660;2022-08-19T08:22:24;27.00;1.00
3778;DHT22;1904;50.076;8.660;2022-08-19T08:25:15;27.30;1.00
3778;DHT22;1904;50.076;8.660;2022-08-19T08:27:43;27.50;1.00
3778;DHT22;1904;50.076;8.660;2022-08-19T08:30:13;27.70;1.00
3778;DHT22;1904;50.076;8.660;2022-08-19T08:32:40;27.70;1.00
3778;DHT22;1904;50.076;8.660;2022-08-19T08:35:08;27.90;1.00
3778;DHT22;1904;50.076;8.660;2022-08-19T08:37:34;27.90;1.00
3778;DHT22;1904;50.076;8.660;2022-08-19T08:42:57;28.20;1.00
3778;DHT22;1904;50.076;8.660;2022-08-19T08:45:28;28.30;1.00
3778;DHT22;1904;50.076;8.660;2022-08-19T08:47:57;28.30;1.00
3778;DHT22;1904;50.076;8.660;2022-08-19T08:50:37;28.50;1.00
3778;DHT22;1904;50.076;8.660;2022-08-19T08:53:06;28.70;1.00
3778;DHT22;1904;50.076;8.660;2022-08-19T08:55:33;28.80;1.00
3778;DHT22;1904;50.076;8.660;2022-08-19T08:58:11;28.70;1.00
3778;DHT22;1904;50.076;8.660;2022-08-19T09:00:47;28.50;1.00
3778;DHT22;1904;50.076;8.660;2022-08-19T09:03:18;28.60;1.00
3778;DHT22;1904;50.076;8.660;2022-08-19T09:10:55;28.20;1.00
3778;DHT22;1904;50.076;8.660;2022-08-19T09:13:37;28.10;1.00
3778;DHT22;1904;50.076;8.660;2022-08-19T09:16:15;28.00;1.00
3778;DHT22;1904;50.076;8.660;2022-08-19T09:18:42;28.10;1.00
3778;DHT22;1904;50.076;8.660;2022-08-19T09:21:08;28.20;1.00
3778;DHT22;1904;50.076;8.660;2022-08-19T09:23:36;28.40;1.00
3778;DHT22;1904;50.076;8.660;2022-08-19T09:26:10;28.40;1.00
3778;DHT22;1904;50.076;8.660;2022-08-19T09:28:39;28.60;1.00
3778;DHT22;1904;50.076;8.660;2022-08-19T09:31:06;28.70;1.00
3778;DHT22;1904;50.076;8.660;2022-08-19T09:33:32;28.70;1.00
3778;DHT22;1904;50.076;8.660;2022-08-19T09:36:06;29.00;1.00
3778;DHT22;1904;50.076;8.660;2022-08-19T09:38:32;29.20;1.00
3778;DHT22;1904;50.076;8.660;2022-08-19T09:41:13;29.60;1.00
3778;DHT22;1904;50.076;8.660;2022-08-19T09:43:40;29.60;1.00
3778;DHT22;1904;50.076;8.660;2022-08-19T09:46:27;29.70;1.00
3778;DHT22;1904;50.076;8.660;2022-08-19T09:48:54;29.80;1.00
3778;DHT22;1904;50.076;8.660;2022-08-19T09:51:27;29.90;1.00
3778;DHT22;1904;50.076;8.660;2022-08-19T09:54:00;30.00;1.00
3778;DHT22;1904;50.076;8.660;2022-08-19T09:56:27;29.70;1.00
3778;DHT22;1904;50.076;8.660;2022-08-19T09:58:54;29.50;1.00
3778;DHT22;1904;50.076;8.660;2022-08-19T10:01:24;29.20;1.00
3778;DHT22;1904;50.076;8.660;2022-08-19T10:03:51;29.30;1.00
3778;DHT22;1904;50.076;8.660;2022-08-19T10:06:24;29.50;1.00
3778;DHT22;1904;50.076;8.660;2022-08-19T10:08:51;29.60;1.00
3778;DHT22;1904;50.076;8.660;2022-08-19T10:11:18;29.50;1.00
3778;DHT22;1904;50.076;8.660;2022-08-19T10:13:45;29.60;1.00
3778;DHT22;1904;50.076;8.660;2022-08-19T10:16:15;29.60;1.00
3778;DHT22;1904;50.076;8.660;2022-08-19T10:18:57;29.70;1.00
3778;DHT22;1904;50.076;8.660;2022-08-19T10:21:28;29.70;1.00
3778;DHT22;1904;50.076;8.660;2022-08-19T10:24:09;29.50;1.00
3778;DHT22;1904;50.076;8.660;2022-08-19T10:26:45;29.50;1.00
3778;DHT22;1904;50.076;8.660;2022-08-19T10:29:44;29.50;1.00
3778;DHT22;1904;50.076;8.660;2022-08-19T10:32:44;29.60;1.00
3778;DHT22;1904;50.076;8.660;2022-08-19T10:35:15;29.80;1.00
3778;DHT22;1904;50.076;8.660;2022-08-19T10:37:42;30.00;1.00
3778;DHT22;1904;50.076;8.660;2022-08-19T10:40:15;30.20;1.00
3778;DHT22;1904;50.076;8.660;2022-08-19T10:42:57;30.30;1.00
3778;DHT22;1904;50.076;8.660;2022-08-19T10:45:27;30.50;1.00
3778;DHT22;1904;50.076;8.660;2022-08-19T10:47:57;30.70;1.00
3778;DHT22;1904;50.076;8.660;2022-08-19T10:50:23;30.90;1.00
3778;DHT22;1904;50.076;8.660;2022-08-19T10:53:08;31.10;1.00
3778;DHT22;1904;50.076;8.660;2022-08-19T10:55:34;31.10;1.00
3778;DHT22;1904;50.076;8.660;2022-08-19T10:58:20;31.10;1.00
3778;DHT22;1904;50.076;8.660;2022-08-19T11:00:55;31.10;1.00
3778;DHT22;1904;50.076;8.660;2022-08-19T11:03:22;31.00;1.00
3778;DHT22;1904;50.076;8.660;2022-08-19T11:06:07;30.90;1.00
3778;DHT22;1904;50.076;8.660;2022-08-19T11:08:34;31.10;1.00
3778;DHT22;1904;50.076;8.660;2022-08-19T11:11:01;31.20;1.00
3778;DHT22;1904;50.076;8.660;2022-08-19T11:13:37;31.10;1.00
3778;DHT22;1904;50.076;8.660;2022-08-19T11:16:07;31.10;1.00
3778;DHT22;1904;50.076;8.660;2022-08-19T11:18:42;31.20;1.00
3778;DHT22;1904;50.076;8.660;2022-08-19T11:23:35;31.50;1.00
3778;DHT22;1904;50.076;8.660;2022-08-19T11:26:01;31.60;1.00
3778;DHT22;1904;50.076;8.660;2022-08-19T11:28:27;31.80;1.00
3778;DHT22;1904;50.076;8.660;2022-08-19T11:30:53;31.70;1.00
3778;DHT22;1904;50.076;8.660;2022-08-19T11:33:19;31.50;1.00
3778;DHT22;1904;50.076;8.660;2022-08-19T11:35:45;31.60;1.00
3778;DHT22;1904;50.076;8.660;2022-08-19T11:38:10;31.70;1.00
3778;DHT22;1904;50.076;8.660;2022-08-19T11:40:39;31.70;1.00
3778;DHT22;1904;50.076;8.660;2022-08-19T11:43:05;31.80;1.00
3778;DHT22;1904;50.076;8.660;2022-08-19T11:45:31;31.90;1.00
3778;DHT22;1904;50.076;8.660;2022-08-19T11:47:57;31.90;1.00
3778;DHT22;1904;50.076;8.660;2022-08-19T11:50:23;31.90;1.00
3778;DHT22;1904;50.076;8.660;2022-08-19T11:52:50;32.00;1.00
3778;DHT22;1904;50.076;8.660;2022-08-19T11:55:16;32.10;1.00
3778;DHT22;1904;50.076;8.660;2022-08-19T11:57:42;32.10;1.00
3778;DHT22;1904;50.076;8.660;2022-08-19T12:00:09;32.10;1.00
3778;DHT22;1904;50.076;8.660;2022-08-19T12:02:37;32.20;1.00
3778;DHT22;1904;50.076;8.660;2022-08-19T12:05:26;32.00;1.00
3778;DHT22;1904;50.076;8.660;2022-08-19T12:08:03;32.00;1.00
3778;DHT22;1904;50.076;8.660;2022-08-19T12:10:29;31.80;1.00
3778;DHT22;1904;50.076;8.660;2022-08-19T12:13:03;31.70;1.00
3778;DHT22;1904;50.076;8.660;2022-08-19T12:15:29;31.60;1.00
3778;DHT22;1904;50.076;8.660;2022-08-19T12:17:57;31.50;1.00
3778;DHT22;1904;50.076;8.660;2022-08-19T12:20:23;31.40;1.00
3778;DHT22;1904;50.076;8.660;2022-08-19T12:23:04;31.40;1.00
3778;DHT22;1904;50.076;8.660;2022-08-19T12:25:30;31.40;1.00
3778;DHT22;1904;50.076;8.660;2022-08-19T12:27:57;31.60;1.00
3778;DHT22;1904;50.076;8.660;2022-08-19T12:30:23;31.70;1.00
3778;DHT22;1904;50.076;8.660;2022-08-19T12:32:49;31.70;1.00
3778;DHT22;1904;50.076;8.660;2022-08-19T12:35:21;32.00;1.00
3778;DHT22;1904;50.076;8.660;2022-08-19T12:37:49;31.70;1.00
3778;DHT22;1904;50.076;8.660;2022-08-19T12:40:16;31.70;1.00
3778;DHT22;1904;50.076;8.660;2022-08-19T12:42:43;31.70;1.00
3778;DHT22;1904;50.076;8.660;2022-08-19T12:45:10;31.90;1.00
3778;DHT22;1904;50.076;8.660;2022-08-19T12:47:45;32.00;1.00
3778;DHT22;1904;50.076;8.660;2022-08-19T12:50:12;32.10;1.00
3778;DHT22;1904;50.076;8.660;2022-08-19T12:52:38;32.20;1.00
3778;DHT22;1904;50.076;8.660;2022-08-19T12:55:06;32.30;1.00
3778;DHT22;1904;50.076;8.660;2022-08-19T12:57:32;32.40;1.00
3778;DHT22;1904;50.076;8.660;2022-08-19T13:00:13;32.40;1.00
3778;DHT22;1904;50.076;8.660;2022-08-19T13:02:46;32.30;1.00
3778;DHT22;1904;50.076;8.660;2022-08-19T13:05:26;32.10;1.00
3778;DHT22;1904;50.076;8.660;2022-08-19T13:07:58;32.00;1.00
3778;DHT22;1904;50.076;8.660;2022-08-19T13:10:28;32.00;1.00
3778;DHT22;1904;50.076;8.660;2022-08-19T13:12:57;32.20;1.00
3778;DHT22;1904;50.076;8.660;2022-08-19T13:15:25;32.30;1.00
3778;DHT22;1904;50.076;8.660;2022-08-19T13:17:52;32.20;1.00
3778;DHT22;1904;50.076;8.660;2022-08-19T13:20:19;32.10;1.00
3778;DHT22;1904;50.076;8.660;2022-08-19T13:22:46;32.00;1.00
3778;DHT22;1904;50.076;8.660;2022-08-19T13:25:13;31.80;1.00
3778;DHT22;1904;50.076;8.660;2022-08-19T13:27:39;31.70;1.00
3778;DHT22;1904;50.076;8.660;2022-08-19T13:30:08;31.50;1.00
3778;DHT22;1904;50.076;8.660;2022-08-19T13:32:53;31.60;1.00
3778;DHT22;1904;50.076;8.660;2022-08-19T13:35:49;31.40;1.00
3778;DHT22;1904;50.076;8.660;2022-08-19T13:38:18;31.40;1.00
3778;DHT22;1904;50.076;8.660;2022-08-19T13:40:46;31.40;1.00
3778;DHT22;1904;50.076;8.660;2022-08-19T13:43:13;31.50;1.00
3778;DHT22;1904;50.076;8.660;2022-08-19T13:45:39;31.60;1.00
3778;DHT22;1904;50.076;8.660;2022-08-19T13:48:06;31.70;1.00
3778;DHT22;1904;50.076;8.660;2022-08-19T13:50:37;31.80;1.00
3778;DHT22;1904;50.076;8.660;2022-08-19T13:53:03;31.70;1.00
3778;DHT22;1904;50.076;8.660;2022-08-19T13:55:41;31.70;1.00
3778;DHT22;1904;50.076;8.660;2022-08-19T13:58:08;31.70;1.00
3778;DHT22;1904;50.076;8.660;2022-08-19T14:00:38;31.80;1.00
3778;DHT22;1904;50.076;8.660;2022-08-19T14:03:05;31.90;1.00
3778;DHT22;1904;50.076;8.660;2022-08-19T14:05:33;31.90;1.00
3778;DHT22;1904;50.076;8.660;2022-08-19T14:07:59;31.90;1.00
3778;DHT22;1904;50.076;8.660;2022-08-19T14:10:33;32.00;1.00
3778;DHT22;1904;50.076;8.660;2022-08-19T14:13:04;32.00;1.00
3778;DHT22;1904;50.076;8.660;2022-08-19T14:15:33;32.10;1.00
3778;DHT22;1904;50.076;8.660;2022-08-19T14:18:03;32.10;1.00
3778;DHT22;1904;50.076;8.660;2022-08-19T14:20:35;32.20;1.00
3778;DHT22;1904;50.076;8.660;2022-08-19T14:23:10;32.20;1.00
3778;DHT22;1904;50.076;8.660;2022-08-19T14:25:39;32.30;1.00
3778;DHT22;1904;50.076;8.660;2022-08-19T14:28:21;32.40;1.00
3778;DHT22;1904;50.076;8.660;2022-08-19T14:30:51;32.40;1.00
3778;DHT22;1904;50.076;8.660;2022-08-19T14:33:27;32.40;1.00
3778;DHT22;1904;50.076;8.660;2022-08-19T14:35:57;32.40;1.00
3778;DHT22;1904;50.076;8.660;2022-08-19T14:38:27;32.40;1.00
3778;DHT22;1904;50.076;8.660;2022-08-19T14:41:26;32.40;1.00
3778;DHT22;1904;50.076;8.660;2022-08-19T14:44:15;32.20;1.00
3778;DHT22;1904;50.076;8.660;2022-08-19T14:46:41;32.60;1.00
3778;DHT22;1904;50.076;8.660;2022-08-19T14:49:16;33.10;1.00
3778;DHT22;1904;50.076;8.660;2022-08-19T14:51:43;33.80;1.00
3778;DHT22;1904;50.076;8.660;2022-08-19T14:54:10;34.10;1.00
3778;DHT22;1904;50.076;8.660;2022-08-19T14:56:40;34.20;1.00
3778;DHT22;1904;50.076;8.660;2022-08-19T14:59:07;34.20;1.00
3778;DHT22;1904;50.076;8.660;2022-08-19T15:01:39;33.70;1.00
3778;DHT22;1904;50.076;8.660;2022-08-19T15:04:05;33.40;1.00
3778;DHT22;1904;50.076;8.660;2022-08-19T15:06:31;33.10;1.00
3778;DHT22;1904;50.076;8.660;2022-08-19T15:09:15;33.00;1.00
3778;DHT22;1904;50.076;8.660;2022-08-19T15:11:42;33.40;1.00
3778;DHT22;1904;50.076;8.660;2022-08-19T15:14:10;34.20;1.00
3778;DHT22;1904;50.076;8.660;2022-08-19T15:16:35;34.50;1.00
3778;DHT22;1904;50.076;8.660;2022-08-19T15:19:07;34.60;1.00
3778;DHT22;1904;50.076;8.660;2022-08-19T15:21:33;35.10;1.00
3778;DHT22;1904;50.076;8.660;2022-08-19T15:23:59;35.30;1.00
3778;DHT22;1904;50.076;8.660;2022-08-19T15:26:26;34.90;1.00
3778;DHT22;1904;50.076;8.660;2022-08-19T15:28:56;34.60;1.00
3778;DHT22;1904;50.076;8.660;2022-08-19T15:31:23;34.20;1.00
3778;DHT22;1904;50.076;8.660;2022-08-19T15:34:04;34.10;1.00
3778;DHT22;1904;50.076;8.660;2022-08-19T15:36:39;34.50;1.00
3778;DHT22;1904;50.076;8.660;2022-08-19T15:39:05;34.80;1.00
3778;DHT22;1904;50.076;8.660;2022-08-19T15:41:31;35.20;1.00
3778;DHT22;1904;50.076;8.660;2022-08-19T15:44:12;35.40;1.00
3778;DHT22;1904;50.076;8.660;2022-08-19T15:46:41;35.80;1.00
3778;DHT22;1904;50.076;8.660;2022-08-19T15:49:12;36.50;1.00
3778;DHT22;1904;50.076;8.660;2022-08-19T15:51:39;37.00;1.00
3778;DHT22;1904;50.076;8.660;2022-08-19T15:54:10;37.70;1.00
3778;DHT22;1904;50.076;8.660;2022-08-19T15:56:37;38.60;1.00
3778;DHT22;1904;50.076;8.660;2022-08-19T15:59:22;39.30;1.00
3778;DHT22;1904;50.076;8.660;2022-08-19T16:02:09;40.10;1.00
3778;DHT22;1904;50.076;8.660;2022-08-19T16:04:53;40.80;1.00
3778;DHT22;1904;50.076;8.660;2022-08-19T16:07:38;41.80;1.00
3778;DHT22;1904;50.076;8.660;2022-08-19T16:10:04;41.90;1.00
3778;DHT22;1904;50.076;8.660;2022-08-19T16:12:30;41.80;1.00
3778;DHT22;1904;50.076;8.660;2022-08-19T16:14:56;41.90;1.00
3778;DHT22;1904;50.076;8.660;2022-08-19T16:17:22;42.20;1.00
3778;DHT22;1904;50.076;8.660;2022-08-19T16:19:51;42.60;1.00
3778;DHT22;1904;50.076;8.660;2022-08-19T16:22:28;42.90;1.00
3778;DHT22;1904;50.076;8.660;2022-08-19T16:25:05;43.20;1.00
3778;DHT22;1904;50.076;8.660;2022-08-19T16:27:51;43.30;1.00
3778;DHT22;1904;50.076;8.660;2022-08-19T16:30:19;43.30;1.00
3778;DHT22;1904;50.076;8.660;2022-08-19T16:32:51;42.40;1.00
3778;DHT22;1904;50.076;8.660;2022-08-19T16:35:17;42.70;1.00
3778;DHT22;1904;50.076;8.660;2022-08-19T16:37:45;43.00;1.00
3778;DHT22;1904;50.076;8.660;2022-08-19T16:40:39;42.20;1.00
3778;DHT22;1904;50.076;8.660;2022-08-19T16:43:22;42.30;1.00
3778;DHT22;1904;50.076;8.660;2022-08-19T16:46:03;42.40;1.00
3778;DHT22;1904;50.076;8.660;2022-08-19T16:48:34;41.90;1.00
3778;DHT22;1904;50.076;8.660;2022-08-19T17:01:21;40.10;1.00
3778;DHT22;1904;50.076;8.660;2022-08-19T17:03:52;39.40;1.00
3778;DHT22;1904;50.076;8.660;2022-08-19T17:06:24;39.00;1.00
3778;DHT22;1904;50.076;8.660;2022-08-19T17:09:05;38.10;1.00
3778;DHT22;1904;50.076;8.660;2022-08-19T17:11:32;37.80;1.00
3778;DHT22;1904;50.076;8.660;2022-08-19T17:14:00;38.10;1.00
3778;DHT22;1904;50.076;8.660;2022-08-19T17:16:31;38.10;1.00
3778;DHT22;1904;50.076;8.660;2022-08-19T17:22:21;36.90;1.00
3778;DHT22;1904;50.076;8.660;2022-08-19T17:31:03;35.20;1.00
3778;DHT22;1904;50.076;8.660;2022-08-19T17:33:30;34.50;1.00
3778;DHT22;1904;50.076;8.660;2022-08-19T17:39:39;33.20;1.00
3778;DHT22;1904;50.076;8.660;2022-08-19T17:42:21;32.80;1.00
3778;DHT22;1904;50.076;8.660;2022-08-19T17:48:10;31.80;1.00
3778;DHT22;1904;50.076;8.660;2022-08-19T17:50:37;31.40;1.00
3778;DHT22;1904;50.076;8.660;2022-08-19T17:53:04;31.00;1.00
3778;DHT22;1904;50.076;8.660;2022-08-19T17:55:31;30.90;1.00